Time;durP1;ratioP1;P1;durP2;ratioP2;P2;SDS_P1;SDS_P2;PMS_P1;PMS_P2;Temp;Humidity;BMP_temperature;BMP_pressure;BME280_temperature;BME280_humidity;BME280_pressure;Samples;Min_cycle;Max_cycle;Signal;HPM_P1;HPM_P2
2021/05/31 00:00:52;;;;;;;6.10;2.97;;;11.80;73.00;;;;;;5018636;28;20202;-68
2021/05/31 00:03:18;;;;;;;4.20;1.30;;;11.80;73.00;;;;;;5029106;28;20631;-67
2021/05/31 00:05:43;;;;;;;3.57;1.03;;;11.80;73.80;;;;;;5019472;28;20214;-67
2021/05/31 00:08:09;;;;;;;4.20;1.37;;;11.80;73.40;;;;;;5016139;28;20214;-67
2021/05/31 00:10:35;;;;;;;4.10;1.90;;;11.80;73.10;;;;;;4997863;28;20194;-68
2021/05/31 00:13:00;;;;;;;4.60;1.30;;;11.80;73.60;;;;;;5017368;28;20289;-67
2021/05/31 00:15:29;;;;;;;3.40;0.70;;;11.70;74.20;;;;;;5037138;28;20198;-67
2021/05/31 00:17:54;;;;;;;3.40;0.90;;;11.60;74.80;;;;;;5027873;28;20178;-67
2021/05/31 00:20:20;;;;;;;3.80;1.43;;;11.60;75.20;;;;;;5017113;28;20220;-67
2021/05/31 00:22:46;;;;;;;4.10;1.23;;;11.50;75.10;;;;;;5016480;28;20545;-68
2021/05/31 00:25:13;;;;;;;3.83;1.15;;;11.50;75.00;;;;;;5016743;28;20244;-66
2021/05/31 00:27:39;;;;;;;3.88;1.10;;;11.40;74.70;;;;;;5022121;28;20224;-66
2021/05/31 00:30:06;;;;;;;6.60;1.47;;;11.40;75.10;;;;;;5036646;28;20628;-66
2021/05/31 00:32:33;;;;;;;5.38;1.35;;;11.40;75.00;;;;;;5022999;28;20182;-68
2021/05/31 00:34:59;;;;;;;3.40;0.93;;;11.40;75.40;;;;;;5036230;28;20194;-67
2021/05/31 00:37:24;;;;;;;3.97;1.03;;;11.30;75.70;;;;;;5034093;28;20536;-68
2021/05/31 00:39:50;;;;;;;4.20;1.50;;;11.30;76.20;;;;;;5016564;28;20206;-67
2021/05/31 00:42:16;;;;;;;7.20;1.40;;;11.30;76.70;;;;;;5024428;28;20247;-67
2021/05/31 00:44:42;;;;;;;6.87;1.80;;;11.20;76.80;;;;;;5035740;28;20196;-67
2021/05/31 00:47:07;;;;;;;8.03;1.50;;;11.20;77.10;;;;;;5002853;28;20178;-67
2021/05/31 00:49:38;;;;;;;4.17;1.30;;;11.10;77.50;;;;;;5016250;28;20429;-67
2021/05/31 00:52:06;;;;;;;4.18;1.27;;;11.10;77.40;;;;;;5003465;28;20927;-68
2021/05/31 00:54:32;;;;;;;4.70;1.77;;;11.10;78.00;;;;;;5035799;28;20617;-67
2021/05/31 00:56:59;;;;;;;4.13;1.43;;;11.00;79.50;;;;;;5032085;28;20262;-67
2021/05/31 00:59:24;;;;;;;4.22;1.42;;;10.90;80.20;;;;;;5015999;28;20500;-67
2021/05/31 01:01:50;;;;;;;5.63;1.80;;;10.80;80.40;;;;;;5003066;28;20685;-67
2021/05/31 01:04:18;;;;;;;4.23;1.30;;;10.80;80.50;;;;;;5015703;28;20209;-66
2021/05/31 01:06:52;;;;;;;4.30;1.65;;;10.70;80.80;;;;;;5016209;28;20187;-66
2021/05/31 01:09:28;;;;;;;4.53;1.50;;;10.60;80.90;;;;;;5035735;28;20178;-67
2021/05/31 01:12:13;;;;;;;3.95;1.10;;;10.60;82.00;;;;;;5034363;28;20212;-67
2021/05/31 01:14:58;;;;;;;5.15;1.50;;;10.50;82.20;;;;;;5015538;28;20194;-67
2021/05/31 01:17:45;;;;;;;5.35;1.48;;;10.40;83.20;;;;;;5009429;28;20178;-67
2021/05/31 01:20:33;;;;;;;4.03;1.27;;;10.30;83.40;;;;;;5015830;28;20257;-67
2021/05/31 01:23:02;;;;;;;3.63;1.25;;;10.30;83.40;;;;;;5014877;28;20169;-66
2021/05/31 01:26:02;;;;;;;3.60;1.20;;;10.20;84.00;;;;;;5015717;28;20190;-67
2021/05/31 01:29:02;;;;;;;3.88;1.25;;;10.10;84.10;;;;;;5034677;28;20174;-66
2021/05/31 01:31:36;;;;;;;4.32;1.33;;;10.10;84.30;;;;;;5035057;28;20177;-67
2021/05/31 01:34:06;;;;;;;4.25;1.13;;;10.10;85.00;;;;;;5035160;28;20683;-66
2021/05/31 01:36:34;;;;;;;4.65;1.20;;;10.10;84.80;;;;;;5033103;28;20178;-68
2021/05/31 01:39:01;;;;;;;5.05;1.15;;;10.10;84.70;;;;;;5035379;28;20182;-68
2021/05/31 01:41:26;;;;;;;4.05;1.20;;;10.20;84.80;;;;;;5015326;28;20208;-68
2021/05/31 01:43:53;;;;;;;3.80;1.30;;;10.20;84.50;;;;;;5014931;28;20634;-68
2021/05/31 01:46:20;;;;;;;5.05;1.80;;;10.20;84.90;;;;;;5014653;28;20170;-68
2021/05/31 01:48:48;;;;;;;4.05;1.70;;;10.20;85.20;;;;;;4995839;28;20187;-69
2021/05/31 01:51:15;;;;;;;4.30;1.77;;;10.20;85.10;;;;;;4995779;28;20172;-68
2021/05/31 01:53:42;;;;;;;5.47;1.92;;;10.20;85.20;;;;;;5032051;28;20182;-68
2021/05/31 01:56:09;;;;;;;4.15;1.25;;;10.20;85.70;;;;;;4988007;28;20187;-68
2021/05/31 01:58:38;;;;;;;3.80;1.40;;;10.20;85.90;;;;;;5013818;28;20173;-68
2021/05/31 02:01:05;;;;;;;3.70;0.93;;;10.20;85.80;;;;;;5010044;28;20613;-67
2021/05/31 02:03:31;;;;;;;4.75;1.35;;;10.20;85.80;;;;;;5029366;28;20231;-66
2021/05/31 02:05:56;;;;;;;3.77;1.17;;;10.10;85.50;;;;;;5027743;28;20206;-67
2021/05/31 02:08:22;;;;;;;3.93;1.17;;;10.20;85.60;;;;;;5003173;28;20199;-67
2021/05/31 02:10:48;;;;;;;4.97;1.60;;;10.30;85.40;;;;;;4995333;28;20194;-66
2021/05/31 02:13:15;;;;;;;3.83;0.80;;;10.30;85.40;;;;;;5011595;28;20183;-66
2021/05/31 02:15:41;;;;;;;3.97;1.33;;;10.40;86.00;;;;;;5010653;28;20590;-67
2021/05/31 02:18:15;;;;;;;3.40;0.77;;;10.40;85.00;;;;;;5015208;28;20232;-65
2021/05/31 02:20:44;;;;;;;4.47;1.35;;;10.50;85.00;;;;;;5014955;28;20201;-66
2021/05/31 02:23:11;;;;;;;3.85;0.85;;;10.50;85.00;;;;;;5029317;28;20260;-67
2021/05/31 02:25:38;;;;;;;3.70;1.27;;;10.50;85.10;;;;;;5034442;28;20201;-67
2021/05/31 02:28:05;;;;;;;3.33;0.82;;;10.50;85.00;;;;;;5020202;28;20178;-67
2021/05/31 02:30:31;;;;;;;4.05;1.15;;;10.50;85.10;;;;;;5006514;28;20172;-68
2021/05/31 02:33:00;;;;;;;3.53;0.93;;;10.50;85.00;;;;;;5019136;28;20201;-66
2021/05/31 02:35:29;;;;;;;4.60;1.30;;;10.50;85.40;;;;;;5034113;28;20198;-68
2021/05/31 02:37:55;;;;;;;4.20;1.05;;;10.50;85.20;;;;;;5021416;28;20183;-67
2021/05/31 02:40:22;;;;;;;4.97;1.60;;;10.40;85.40;;;;;;5014703;28;20261;-68
2021/05/31 02:42:51;;;;;;;4.95;1.60;;;10.40;85.80;;;;;;5034006;28;20412;-67
2021/05/31 02:45:19;;;;;;;4.20;1.20;;;10.40;85.80;;;;;;5025074;28;20274;-67
2021/05/31 02:47:45;;;;;;;4.35;1.15;;;10.40;85.60;;;;;;5014465;28;20167;-67
2021/05/31 02:50:12;;;;;;;4.80;1.45;;;10.40;85.70;;;;;;5013636;28;20166;-68
2021/05/31 02:52:41;;;;;;;11.23;1.70;;;10.40;86.00;;;;;;5012974;28;20189;-67
2021/05/31 02:55:15;;;;;;;4.03;1.52;;;10.30;86.10;;;;;;5015511;28;20212;-67
2021/05/31 02:57:41;;;;;;;3.90;1.70;;;10.30;86.30;;;;;;5033388;28;20208;-66
2021/05/31 03:00:11;;;;;;;4.65;1.63;;;10.30;86.60;;;;;;5032078;28;20219;-67
2021/05/31 03:02:36;;;;;;;3.92;0.98;;;10.30;87.10;;;;;;5006132;28;20598;-68
2021/05/31 03:05:03;;;;;;;4.67;1.60;;;10.20;87.50;;;;;;5000088;28;20276;-67
2021/05/31 03:07:29;;;;;;;3.50;1.00;;;10.20;87.70;;;;;;5033769;28;20170;-67
2021/05/31 03:09:54;;;;;;;3.80;1.00;;;10.20;87.80;;;;;;5033761;28;20166;-66
2021/05/31 03:12:21;;;;;;;3.93;1.57;;;10.20;88.10;;;;;;5014465;28;20297;-67
2021/05/31 03:14:47;;;;;;;3.70;0.90;;;10.10;88.30;;;;;;5013215;28;20209;-66
2021/05/31 03:17:14;;;;;;;4.45;1.80;;;10.10;88.60;;;;;;5026813;28;20191;-67
2021/05/31 03:19:40;;;;;;;4.90;1.73;;;10.10;88.60;;;;;;5012962;28;20205;-67
2021/05/31 03:22:06;;;;;;;4.40;1.65;;;10.10;88.90;;;;;;5028052;28;20181;-67
2021/05/31 03:24:31;;;;;;;3.60;0.90;;;10.10;89.10;;;;;;5033071;28;20194;-66
2021/05/31 03:26:57;;;;;;;3.97;1.10;;;10.10;89.40;;;;;;5018166;28;20173;-66
2021/05/31 03:29:23;;;;;;;4.30;0.97;;;10.10;89.50;;;;;;5013738;28;20232;-67
2021/05/31 03:31:48;;;;;;;8.13;1.30;;;10.10;89.70;;;;;;5025766;28;20579;-67
2021/05/31 03:34:14;;;;;;;3.97;1.50;;;10.10;90.20;;;;;;5032847;28;20233;-67
2021/05/31 03:36:40;;;;;;;3.90;1.37;;;10.00;90.30;;;;;;5021921;28;20173;-67
2021/05/31 03:39:07;;;;;;;4.13;1.53;;;10.00;90.60;;;;;;5013367;28;20177;-67
2021/05/31 03:41:33;;;;;;;4.93;1.60;;;9.90;91.30;;;;;;5013789;28;20194;-66
2021/05/31 03:43:58;;;;;;;4.20;1.50;;;9.90;91.70;;;;;;5013015;28;20241;-67
2021/05/31 03:46:24;;;;;;;5.70;1.40;;;9.80;92.00;;;;;;5022161;28;20256;-67
2021/05/31 03:48:51;;;;;;;3.67;0.90;;;9.80;92.40;;;;;;5033218;28;20420;-67
2021/05/31 03:51:18;;;;;;;3.90;0.90;;;9.70;92.80;;;;;;5025580;28;20534;-66
2021/05/31 03:53:43;;;;;;;4.22;1.98;;;9.70;93.00;;;;;;5012205;28;20179;-66
2021/05/31 03:56:10;;;;;;;4.30;1.00;;;9.70;93.10;;;;;;5018586;28;20181;-66
2021/05/31 03:58:37;;;;;;;4.10;1.38;;;9.70;93.10;;;;;;5015344;28;20670;-67
2021/05/31 04:01:04;;;;;;;4.15;1.55;;;9.70;93.20;;;;;;5027798;28;20523;-66
2021/05/31 04:03:30;;;;;;;3.80;1.20;;;9.70;93.20;;;;;;5012286;28;20217;-67
2021/05/31 04:11:48;;;;;;;4.30;1.70;;;9.90;93.10;;;;;;5028899;28;20272;-67
2021/05/31 04:13:55;;;;;;;4.00;1.10;;;10.00;92.60;;;;;;5004707;28;20225;-67
2021/05/31 04:16:20;;;;;;;6.27;2.07;;;10.00;92.40;;;;;;5014953;28;20244;-66
2021/05/31 04:18:46;;;;;;;3.57;1.00;;;10.10;92.80;;;;;;4993784;28;20218;-65
2021/05/31 04:21:12;;;;;;;6.77;1.53;;;10.20;92.70;;;;;;5001343;28;20194;-67
2021/05/31 04:23:37;;;;;;;4.87;1.53;;;10.50;92.60;;;;;;5015140;28;20253;-67
2021/05/31 04:26:03;;;;;;;4.70;1.30;;;10.70;92.40;;;;;;5030480;28;20235;-67
2021/05/31 04:28:28;;;;;;;5.37;1.83;;;11.00;91.70;;;;;;5013140;28;20225;-67
2021/05/31 04:30:54;;;;;;;4.50;1.90;;;11.30;91.40;;;;;;4995985;28;20174;-66
2021/05/31 04:33:20;;;;;;;5.20;1.60;;;11.50;91.00;;;;;;5015470;28;20189;-67
2021/05/31 04:35:45;;;;;;;5.37;1.97;;;11.80;90.70;;;;;;5002837;28;20748;-67
2021/05/31 04:38:11;;;;;;;4.30;1.33;;;12.00;90.30;;;;;;5032895;28;20652;-66
2021/05/31 04:40:36;;;;;;;5.17;1.90;;;12.10;90.20;;;;;;5029027;28;20195;-67
2021/05/31 04:43:02;;;;;;;4.60;1.57;;;12.10;89.60;;;;;;5016155;28;20170;-67
2021/05/31 04:45:28;;;;;;;4.90;1.47;;;12.20;90.00;;;;;;5021147;28;20726;-67
2021/05/31 04:47:54;;;;;;;4.30;1.53;;;12.30;90.10;;;;;;4998788;28;20434;-67
2021/05/31 04:50:20;;;;;;;4.00;1.27;;;12.30;88.90;;;;;;5005592;28;20175;-67
2021/05/31 04:52:45;;;;;;;6.40;1.90;;;12.30;88.90;;;;;;5035960;28;20175;-67
2021/05/31 04:55:18;;;;;;;5.40;1.20;;;12.40;89.60;;;;;;5026156;28;21645;-67
2021/05/31 04:57:45;;;;;;;5.78;1.70;;;12.40;90.00;;;;;;5016198;28;20178;-67
2021/05/31 05:00:13;;;;;;;4.70;1.38;;;12.50;90.10;;;;;;5017716;28;20199;-68
2021/05/31 05:02:39;;;;;;;5.95;1.65;;;12.60;90.40;;;;;;5036202;28;20182;-67
2021/05/31 05:05:05;;;;;;;4.57;1.40;;;12.70;90.10;;;;;;5035130;28;20209;-67
2021/05/31 05:07:30;;;;;;;5.53;2.38;;;12.80;89.70;;;;;;5016096;28;20179;-66
2021/05/31 05:09:56;;;;;;;5.70;1.80;;;12.90;88.70;;;;;;5015491;28;20189;-66
2021/05/31 05:12:22;;;;;;;4.30;1.73;;;13.00;88.20;;;;;;5035301;28;20744;-67
2021/05/31 05:14:48;;;;;;;4.50;1.73;;;13.10;88.00;;;;;;5035597;28;20216;-65
2021/05/31 05:17:13;;;;;;;7.00;2.00;;;13.10;87.50;;;;;;5035213;28;20180;-67
2021/05/31 05:19:39;;;;;;;5.53;1.73;;;13.00;86.90;;;;;;5035588;28;20413;-65
2021/05/31 05:22:05;;;;;;;3.90;1.20;;;12.90;87.20;;;;;;5019388;28;20416;-67
2021/05/31 05:24:32;;;;;;;5.03;1.80;;;12.80;88.50;;;;;;5008002;28;20221;-67
2021/05/31 05:27:00;;;;;;;7.30;1.83;;;12.90;88.30;;;;;;5025497;28;20170;-67
2021/05/31 05:29:26;;;;;;;6.28;2.00;;;13.00;88.90;;;;;;5035508;28;20186;-66
2021/05/31 05:31:51;;;;;;;5.20;1.80;;;13.00;90.10;;;;;;5021386;28;20664;-67
2021/05/31 05:34:17;;;;;;;4.57;1.97;;;13.10;88.70;;;;;;5015101;28;20227;-65
2021/05/31 05:36:51;;;;;;;5.57;2.00;;;13.30;88.50;;;;;;5027110;28;20685;-67
2021/05/31 05:42:18;;;;;;;4.43;1.23;;;13.90;87.20;;;;;;5028258;28;20430;-65
2021/05/31 05:45:04;;;;;;;4.57;1.73;;;14.10;86.50;;;;;;5033903;28;20485;-66
2021/05/31 05:47:46;;;;;;;5.60;2.20;;;14.20;84.70;;;;;;5034947;28;20460;-66
2021/05/31 05:50:18;;;;;;;6.73;1.87;;;14.20;84.50;;;;;;5032238;28;20441;-68
2021/05/31 05:52:44;;;;;;;4.77;1.40;;;14.20;84.50;;;;;;5015044;28;20431;-67
2021/05/31 05:55:11;;;;;;;4.50;1.60;;;14.40;83.60;;;;;;5014920;28;20485;-69
2021/05/31 05:57:38;;;;;;;4.30;1.60;;;14.50;83.70;;;;;;4997635;28;20425;-67
2021/05/31 06:00:25;;;;;;;4.40;1.40;;;14.70;82.90;;;;;;5015001;28;20461;-68
2021/05/31 06:02:51;;;;;;;4.90;1.60;;;15.00;82.60;;;;;;5028505;28;20437;-66
2021/05/31 06:05:21;;;;;;;5.07;1.53;;;15.00;82.00;;;;;;5014449;28;20999;-67
2021/05/31 06:07:47;;;;;;;4.70;1.60;;;15.10;82.30;;;;;;4996981;28;20429;-67
2021/05/31 06:10:14;;;;;;;4.63;1.63;;;15.00;81.70;;;;;;5015301;28;20420;-65
2021/05/31 06:12:40;;;;;;;4.50;1.60;;;15.00;81.40;;;;;;5034830;28;20419;-66
2021/05/31 06:15:07;;;;;;;4.00;1.30;;;14.80;81.40;;;;;;5016536;28;20439;-69
2021/05/31 06:17:33;;;;;;;5.67;2.10;;;14.70;85.80;;;;;;5014500;28;20436;-65
2021/05/31 06:20:02;;;;;;;4.97;2.00;;;14.80;84.00;;;;;;5014097;28;20521;-66
2021/05/31 06:22:29;;;;;;;4.00;1.30;;;14.80;84.80;;;;;;5004884;28;20958;-68
2021/05/31 06:25:08;;;;;;;6.20;2.00;;;14.90;84.60;;;;;;4996668;28;20440;-68
2021/05/31 06:27:34;;;;;;;4.60;1.43;;;15.00;83.80;;;;;;4999106;28;20480;-69
2021/05/31 06:29:59;;;;;;;5.20;2.00;;;14.90;84.30;;;;;;5001182;28;20447;-70
2021/05/31 06:32:25;;;;;;;5.20;2.13;;;14.90;84.90;;;;;;5029520;28;20917;-73
2021/05/31 06:34:51;;;;;;;5.03;1.60;;;15.00;83.20;;;;;;5033297;28;20201;-73
2021/05/31 06:37:17;;;;;;;4.80;1.70;;;15.20;83.40;;;;;;5033714;28;20264;-69
2021/05/31 06:39:42;;;;;;;3.60;1.27;;;15.30;83.00;;;;;;5020930;28;20189;-71
2021/05/31 06:42:08;;;;;;;4.13;1.47;;;15.30;82.80;;;;;;5015575;28;20531;-69
2021/05/31 06:44:34;;;;;;;5.30;2.00;;;15.40;82.00;;;;;;5003694;28;20292;-70
2021/05/31 06:47:00;;;;;;;5.10;2.20;;;15.50;82.90;;;;;;5030490;28;20525;-71
2021/05/31 06:49:26;;;;;;;6.70;2.60;;;15.50;82.90;;;;;;5015861;28;20173;-72
2021/05/31 06:51:54;;;;;;;4.27;1.60;;;15.60;81.30;;;;;;5016771;28;20179;-72
2021/05/31 06:54:20;;;;;;;4.50;1.40;;;15.70;81.40;;;;;;5013636;28;20201;-68
2021/05/31 06:56:46;;;;;;;4.50;1.70;;;15.90;80.40;;;;;;5013901;28;20437;-68
2021/05/31 06:59:13;;;;;;;4.47;1.57;;;16.20;80.70;;;;;;5022788;28;20194;-69
2021/05/31 07:01:39;;;;;;;6.90;1.90;;;16.30;81.20;;;;;;5020869;28;20649;-74
2021/05/31 07:04:05;;;;;;;5.37;1.87;;;16.30;79.80;;;;;;5013151;28;20477;-70
2021/05/31 07:06:32;;;;;;;4.87;1.90;;;16.40;81.20;;;;;;5013875;28;20649;-68
2021/05/31 07:08:58;;;;;;;4.57;1.57;;;16.50;78.80;;;;;;5013898;28;20175;-71
2021/05/31 07:11:24;;;;;;;4.47;1.60;;;16.60;77.40;;;;;;4994123;28;20452;-70
2021/05/31 07:13:51;;;;;;;5.33;1.63;;;16.70;76.30;;;;;;4993805;28;20176;-69
2021/05/31 07:16:17;;;;;;;6.00;1.80;;;17.00;75.70;;;;;;5020954;28;20445;-72
2021/05/31 07:18:44;;;;;;;5.20;2.00;;;17.10;77.00;;;;;;5026805;28;20927;-71
2021/05/31 07:21:09;;;;;;;4.37;1.47;;;17.40;77.20;;;;;;5024353;28;20207;-72
2021/05/31 07:23:38;;;;;;;4.30;1.40;;;17.70;75.50;;;;;;5032871;28;20408;-70
2021/05/31 07:26:07;;;;;;;3.97;1.10;;;18.20;75.10;;;;;;5032511;28;20183;-71
2021/05/31 07:28:33;;;;;;;4.37;1.53;;;19.00;73.00;;;;;;5015694;28;20496;-72
2021/05/31 07:31:00;;;;;;;3.80;1.50;;;19.60;69.30;;;;;;5017953;28;20521;-73
2021/05/31 07:33:26;;;;;;;4.50;1.50;;;20.60;67.10;;;;;;4995276;28;20270;-71
2021/05/31 07:35:53;;;;;;;4.37;1.10;;;21.60;64.40;;;;;;5026112;28;20449;-73
2021/05/31 07:38:19;;;;;;;3.90;1.67;;;22.80;57.60;;;;;;5015442;28;20431;-71
2021/05/31 07:40:45;;;;;;;3.70;1.73;;;23.50;55.10;;;;;;5031527;28;20460;-70
2021/05/31 07:43:11;;;;;;;3.73;1.30;;;24.10;53.60;;;;;;5032461;28;20827;-72
2021/05/31 07:45:37;;;;;;;3.50;1.50;;;24.70;52.80;;;;;;5031216;28;20281;-73
2021/05/31 07:48:04;;;;;;;3.80;1.60;;;25.10;52.00;;;;;;5029525;28;20166;-73
2021/05/31 07:50:30;;;;;;;3.17;1.20;;;25.50;50.60;;;;;;5011273;28;20413;-72
2021/05/31 07:52:56;;;;;;;3.30;1.63;;;25.90;48.80;;;;;;5027220;28;20429;-70
2021/05/31 07:55:22;;;;;;;3.60;1.63;;;26.10;47.00;;;;;;5020050;28;20454;-71
2021/05/31 07:57:48;;;;;;;3.70;1.67;;;26.00;47.20;;;;;;5019998;28;20179;-73
2021/05/31 08:00:18;;;;;;;3.27;1.20;;;26.10;47.80;;;;;;5015901;28;20457;-73
2021/05/31 08:02:45;;;;;;;3.57;1.90;;;26.50;48.20;;;;;;5021214;28;20418;-69
2021/05/31 08:05:14;;;;;;;3.70;1.40;;;26.70;46.80;;;;;;5012865;28;20812;-69
2021/05/31 08:07:40;;;;;;;3.17;1.30;;;26.60;45.10;;;;;;5014250;28;20424;-71
2021/05/31 08:10:06;;;;;;;3.30;1.40;;;26.40;45.60;;;;;;5027320;28;20415;-69
2021/05/31 08:12:33;;;;;;;4.53;1.37;;;26.50;45.70;;;;;;5014742;28;20409;-71
2021/05/31 08:14:59;;;;;;;3.60;1.97;;;26.40;45.40;;;;;;5010509;28;20526;-70
2021/05/31 08:17:25;;;;;;;3.30;1.60;;;26.50;46.00;;;;;;5000500;28;20407;-72
2021/05/31 08:19:51;;;;;;;4.50;1.63;;;26.70;45.10;;;;;;5031673;28;20400;-72
2021/05/31 08:22:17;;;;;;;3.10;1.53;;;26.90;44.50;;;;;;5036499;28;20928;-71
2021/05/31 08:24:43;;;;;;;2.90;1.30;;;27.20;44.30;;;;;;4998590;28;20870;-71
2021/05/31 08:27:08;;;;;;;3.17;1.50;;;27.10;44.00;;;;;;5005497;28;20179;-71
2021/05/31 08:29:34;;;;;;;3.40;1.60;;;27.00;44.20;;;;;;5033281;28;20186;-71
2021/05/31 08:32:00;;;;;;;3.90;1.33;;;26.80;45.10;;;;;;5036485;28;20241;-70
2021/05/31 08:34:27;;;;;;;3.60;1.30;;;27.00;44.70;;;;;;5019358;28;20736;-68
2021/05/31 08:36:52;;;;;;;3.03;1.20;;;27.40;44.20;;;;;;5028206;28;20231;-71
2021/05/31 08:39:18;;;;;;;3.37;1.57;;;27.30;43.10;;;;;;5036012;28;20820;-71
2021/05/31 08:41:44;;;;;;;3.30;1.60;;;27.00;43.20;;;;;;5006136;28;20207;-72
2021/05/31 08:44:10;;;;;;;5.07;1.90;;;27.10;43.00;;;;;;5016197;28;20194;-70
2021/05/31 08:46:36;;;;;;;3.70;1.80;;;27.20;42.20;;;;;;5026568;28;20532;-69
2021/05/31 08:49:03;;;;;;;3.40;1.80;;;27.10;43.00;;;;;;5036118;28;20196;-69
2021/05/31 08:51:28;;;;;;;3.13;1.70;;;27.10;43.80;;;;;;5029262;28;20406;-70
2021/05/31 08:53:56;;;;;;;3.03;1.33;;;27.30;43.30;;;;;;5035804;28;20817;-73
2021/05/31 08:56:21;;;;;;;3.07;1.50;;;27.50;42.10;;;;;;5033739;28;20232;-70
2021/05/31 08:58:50;;;;;;;2.90;1.50;;;27.40;41.90;;;;;;5015064;28;20426;-73
2021/05/31 09:01:18;;;;;;;3.20;1.70;;;27.30;42.10;;;;;;5021145;28;20284;-73
2021/05/31 09:03:44;;;;;;;3.23;1.60;;;27.70;42.10;;;;;;5034913;28;20777;-70
2021/05/31 09:06:14;;;;;;;4.67;1.50;;;27.80;42.80;;;;;;5030827;28;20412;-73
2021/05/31 09:08:45;;;;;;;3.00;1.40;;;28.00;42.50;;;;;;5017196;28;20430;-70
2021/05/31 09:11:18;;;;;;;2.90;1.30;;;28.10;42.40;;;;;;5019588;28;20417;-69
2021/05/31 09:13:43;;;;;;;3.40;1.63;;;28.60;42.50;;;;;;5035385;28;20401;-71
2021/05/31 09:16:09;;;;;;;3.07;1.43;;;28.80;41.40;;;;;;5031863;28;20400;-71
2021/05/31 09:18:44;;;;;;;4.13;1.90;;;29.10;41.00;;;;;;5014967;28;20167;-74
2021/05/31 09:21:20;;;;;;;3.40;1.37;;;28.70;41.10;;;;;;5017884;28;20247;-73
2021/05/31 09:23:48;;;;;;;4.30;1.77;;;28.90;41.60;;;;;;5028108;28;20404;-73
2021/05/31 09:26:14;;;;;;;2.80;1.40;;;28.90;40.00;;;;;;5018655;28;20443;-71
2021/05/31 09:28:52;;;;;;;2.97;1.53;;;28.70;39.40;;;;;;5033858;28;20499;-71
2021/05/31 09:31:19;;;;;;;2.83;1.30;;;28.40;40.60;;;;;;5031788;28;20461;-69
2021/05/31 09:33:56;;;;;;;2.90;1.40;;;28.70;40.40;;;;;;4997168;28;20907;-70
2021/05/31 09:36:23;;;;;;;3.97;1.67;;;28.60;40.30;;;;;;5016806;28;20523;-71
2021/05/31 09:38:50;;;;;;;3.50;1.87;;;28.70;39.80;;;;;;5015247;28;20413;-69
2021/05/31 09:41:28;;;;;;;2.80;1.40;;;29.00;39.70;;;;;;5017665;28;20407;-71
2021/05/31 09:43:59;;;;;;;3.90;1.90;;;28.90;39.50;;;;;;5034133;28;20406;-69
2021/05/31 09:46:41;;;;;;;3.60;1.83;;;28.50;39.30;;;;;;5028206;28;20758;-69
2021/05/31 09:49:17;;;;;;;3.07;1.50;;;28.30;40.00;;;;;;5005288;28;20458;-70
2021/05/31 09:52:12;;;;;;;3.30;1.37;;;28.60;40.80;;;;;;5012003;28;20430;-70
2021/05/31 09:54:41;;;;;;;3.10;1.47;;;29.00;39.60;;;;;;5031908;28;20407;-69
2021/05/31 09:57:23;;;;;;;3.40;1.70;;;28.90;40.20;;;;;;5025799;28;20458;-68
2021/05/31 09:59:58;;;;;;;3.30;1.80;;;29.30;40.10;;;;;;5030560;28;20415;-70
2021/05/31 10:02:47;;;;;;;3.30;1.60;;;29.50;38.60;;;;;;5028630;28;20412;-70
2021/05/31 10:08:44;;;;;;;3.03;1.63;;;30.00;39.50;;;;;;5032138;28;20395;-70
2021/05/31 10:10:45;;;;;;;4.07;1.80;;;30.20;38.90;;;;;;5002912;28;20436;-69
2021/05/31 10:13:11;;;;;;;3.17;1.70;;;29.70;38.60;;;;;;5028020;28;20424;-70
2021/05/31 10:15:42;;;;;;;3.10;1.77;;;29.50;40.30;;;;;;5014324;28;20751;-70
2021/05/31 10:18:14;;;;;;;3.00;1.53;;;29.50;39.70;;;;;;5014314;28;20175;-70
2021/05/31 10:20:40;;;;;;;3.60;1.70;;;29.60;39.60;;;;;;5014613;28;20468;-70
2021/05/31 10:23:08;;;;;;;3.23;1.50;;;29.20;40.10;;;;;;5014076;28;20400;-73
2021/05/31 10:25:37;;;;;;;3.30;1.70;;;28.80;39.60;;;;;;5008976;28;20450;-73
2021/05/31 10:28:08;;;;;;;2.90;1.43;;;28.80;39.70;;;;;;5026028;28;20973;-73
2021/05/31 10:31:03;;;;;;;3.50;1.60;;;28.90;40.70;;;;;;5012641;28;20464;-73
2021/05/31 10:33:31;;;;;;;3.30;1.70;;;28.70;40.70;;;;;;4997369;28;20426;-73
2021/05/31 10:36:19;;;;;;;3.40;1.57;;;28.20;40.80;;;;;;4996711;28;20412;-73
2021/05/31 10:38:50;;;;;;;3.63;1.70;;;27.80;41.90;;;;;;5019670;28;20499;-71
2021/05/31 10:41:19;;;;;;;3.10;1.47;;;27.60;41.40;;;;;;5011854;28;20487;-72
2021/05/31 10:43:50;;;;;;;3.73;1.87;;;27.40;41.70;;;;;;4996204;28;20422;-74
2021/05/31 10:46:22;;;;;;;4.67;1.83;;;27.20;42.20;;;;;;5023716;28;20395;-75
2021/05/31 10:48:51;;;;;;;3.30;1.60;;;26.90;44.60;;;;;;5033858;28;20412;-73
2021/05/31 10:51:29;;;;;;;4.00;1.90;;;26.70;41.60;;;;;;5023290;28;20428;-74
2021/05/31 10:54:06;;;;;;;3.60;1.63;;;26.90;42.10;;;;;;5017922;28;20760;-72
2021/05/31 10:56:31;;;;;;;3.70;1.57;;;26.80;41.90;;;;;;5011332;28;20504;-72
2021/05/31 10:58:59;;;;;;;4.73;1.67;;;27.00;42.20;;;;;;5004196;28;20857;-74
2021/05/31 11:01:27;;;;;;;2.87;1.27;;;27.10;42.60;;;;;;5012608;28;20178;-72
2021/05/31 11:04:01;;;;;;;2.67;1.10;;;27.00;41.20;;;;;;5001554;28;20509;-72
2021/05/31 11:06:48;;;;;;;3.03;1.57;;;26.90;42.30;;;;;;5014255;28;20401;-74
2021/05/31 11:09:19;;;;;;;3.93;1.67;;;26.70;41.80;;;;;;5022041;28;20441;-73
2021/05/31 11:11:48;;;;;;;2.90;1.53;;;25.70;42.20;;;;;;5015117;28;20978;-75
2021/05/31 11:14:29;;;;;;;3.33;1.70;;;25.00;44.30;;;;;;5021865;28;20440;-72
2021/05/31 11:16:57;;;;;;;3.90;1.80;;;24.20;44.10;;;;;;4995608;28;20418;-70
2021/05/31 11:19:32;;;;;;;3.40;1.50;;;23.50;45.00;;;;;;5006971;28;20426;-68
2021/05/31 11:21:58;;;;;;;3.17;1.47;;;22.90;46.80;;;;;;5013372;28;20999;-69
2021/05/31 11:24:24;;;;;;;3.50;1.40;;;22.40;47.40;;;;;;5012697;28;20447;-67
2021/05/31 11:26:50;;;;;;;3.37;1.33;;;21.90;50.70;;;;;;5013623;28;20671;-69
2021/05/31 11:29:16;;;;;;;3.80;2.03;;;21.60;50.00;;;;;;5021281;28;20532;-71
2021/05/31 11:31:44;;;;;;;3.20;1.40;;;21.40;50.10;;;;;;5027893;28;20454;-69
2021/05/31 11:34:11;;;;;;;3.87;1.63;;;21.30;49.50;;;;;;5020205;28;20451;-72
2021/05/31 11:36:42;;;;;;;2.97;1.53;;;21.20;50.50;;;;;;5032986;28;20428;-70
2021/05/31 11:39:16;;;;;;;3.37;1.43;;;21.10;48.80;;;;;;5027782;28;20413;-67
2021/05/31 11:41:45;;;;;;;3.27;1.30;;;21.10;48.80;;;;;;5013284;28;20433;-69
2021/05/31 11:44:26;;;;;;;3.93;1.30;;;21.00;48.20;;;;;;5017365;28;20451;-68
2021/05/31 11:46:57;;;;;;;3.40;1.30;;;20.80;48.60;;;;;;5013355;28;20432;-68
2021/05/31 11:49:24;;;;;;;8.80;1.73;;;20.80;48.80;;;;;;5020658;28;20473;-71
2021/05/31 11:52:12;;;;;;;2.80;1.30;;;20.90;48.80;;;;;;5033009;28;20453;-68
2021/05/31 11:54:39;;;;;;;3.40;1.43;;;20.90;49.50;;;;;;5022511;28;20507;-68
2021/05/31 11:57:13;;;;;;;3.40;1.20;;;20.90;48.20;;;;;;5033146;28;20507;-69
2021/05/31 11:59:44;;;;;;;3.50;1.33;;;20.80;48.60;;;;;;5023059;28;20509;-67
2021/05/31 12:02:14;;;;;;;3.87;1.77;;;20.70;48.40;;;;;;5012967;28;20840;-68
2021/05/31 12:04:44;;;;;;;3.10;1.30;;;20.70;48.10;;;;;;5021638;28;20441;-66
2021/05/31 12:07:13;;;;;;;3.00;1.10;;;20.70;49.80;;;;;;5033069;28;20444;-67
2021/05/31 12:09:40;;;;;;;3.07;1.00;;;20.70;48.80;;;;;;5015675;28;20424;-69
2021/05/31 12:12:06;;;;;;;3.10;1.40;;;20.80;48.80;;;;;;4998887;28;20438;-68
2021/05/31 12:14:49;;;;;;;3.77;1.50;;;20.70;48.70;;;;;;5012535;28;20437;-69
2021/05/31 12:17:16;;;;;;;3.80;1.70;;;20.80;49.10;;;;;;5013266;28;20811;-67
2021/05/31 12:19:43;;;;;;;3.20;1.30;;;20.80;48.80;;;;;;5003710;28;20421;-70
2021/05/31 12:22:10;;;;;;;2.97;1.03;;;20.80;47.70;;;;;;5015083;28;20864;-68
2021/05/31 12:24:46;;;;;;;2.80;0.97;;;20.90;48.00;;;;;;5018506;28;20439;-64
2021/05/31 12:27:13;;;;;;;3.43;1.80;;;20.90;48.70;;;;;;5032995;28;20412;-67
2021/05/31 12:29:49;;;;;;;2.70;1.10;;;21.00;47.60;;;;;;5015875;28;20485;-66
2021/05/31 12:32:16;;;;;;;3.23;1.20;;;21.00;47.30;;;;;;5013100;28;20789;-64
2021/05/31 12:34:43;;;;;;;3.70;1.50;;;21.10;47.80;;;;;;5019875;28;20448;-66
2021/05/31 12:37:13;;;;;;;4.20;1.70;;;21.10;49.00;;;;;;5023565;28;20419;-67
2021/05/31 12:39:44;;;;;;;3.40;1.43;;;21.10;46.70;;;;;;5022274;28;20481;-66
2021/05/31 12:42:10;;;;;;;3.63;1.77;;;21.10;48.00;;;;;;5032658;28;20411;-66
2021/05/31 12:44:36;;;;;;;2.77;1.10;;;21.00;47.60;;;;;;5023445;28;20531;-68
2021/05/31 12:47:14;;;;;;;3.47;1.30;;;20.90;47.80;;;;;;5028270;28;20975;-67
2021/05/31 12:49:45;;;;;;;3.33;1.53;;;21.00;48.40;;;;;;5018563;28;20177;-66
2021/05/31 12:52:11;;;;;;;3.93;1.80;;;21.00;49.10;;;;;;4992532;28;20443;-65
2021/05/31 12:54:37;;;;;;;2.90;1.17;;;20.90;48.30;;;;;;5020238;28;20447;-67
2021/05/31 12:57:08;;;;;;;3.20;1.43;;;20.80;48.20;;;;;;4999257;28;20430;-66
2021/05/31 12:59:33;;;;;;;3.30;1.30;;;20.80;49.00;;;;;;5024776;28;20266;-68
2021/05/31 13:01:59;;;;;;;2.93;1.27;;;20.80;49.30;;;;;;5031352;28;20853;-65
2021/05/31 13:04:26;;;;;;;3.50;1.50;;;20.80;50.00;;;;;;5022347;28;20676;-63
2021/05/31 13:06:52;;;;;;;4.43;1.90;;;20.90;49.20;;;;;;5034048;28;20416;-65